createdAt,value
2023-06-23T00:00:24.146Z,1.90
2023-06-23T00:02:51.368Z,2.30
2023-06-23T00:05:18.671Z,2.20
2023-06-23T00:07:45.732Z,2.30
2023-06-23T00:10:12.853Z,2.20
2023-06-23T00:12:44.014Z,2.30
2023-06-23T00:15:13.006Z,2.30
2023-06-23T00:17:42.097Z,2.25
2023-06-23T00:20:14.538Z,2.03
2023-06-23T00:22:42.630Z,2.42
2023-06-23T00:25:11.199Z,2.25
2023-06-23T00:27:43.519Z,2.05
2023-06-23T00:30:12.429Z,2.28
2023-06-23T00:32:40.825Z,2.47
2023-06-23T00:35:12.085Z,2.05
2023-06-23T00:37:39.204Z,2.65
2023-06-23T00:40:12.124Z,2.30
2023-06-23T00:42:50.319Z,2.08
2023-06-23T00:45:17.366Z,2.08
2023-06-23T00:47:46.264Z,2.33
2023-06-23T00:50:20.680Z,2.25
2023-06-23T00:52:51.931Z,2.10
2023-06-23T00:55:23.208Z,1.77
2023-06-23T00:57:51.718Z,2.13
2023-06-23T01:00:20.054Z,2.30
2023-06-23T01:02:50.872Z,2.17
2023-06-23T01:08:28.113Z,2.20
2023-06-23T01:10:58.897Z,2.08
2023-06-23T01:13:55.175Z,2.60
2023-06-23T01:16:32.937Z,2.10
2023-06-23T01:19:30.603Z,2.10
2023-06-23T01:22:18.604Z,2.20
2023-06-23T01:24:48.642Z,2.25
2023-06-23T01:27:35.004Z,2.10
2023-06-23T01:30:07.654Z,2.20
2023-06-23T01:32:52.531Z,2.10
2023-06-23T01:35:25.581Z,1.80
2023-06-23T01:37:59.244Z,2.00
2023-06-23T01:40:27.386Z,2.17
2023-06-23T01:42:58.700Z,2.20
2023-06-23T01:45:30.503Z,2.40
2023-06-23T01:48:02.764Z,2.13
2023-06-23T01:50:32.961Z,2.05
2023-06-23T01:53:02.463Z,2.10
2023-06-23T01:55:32.277Z,2.00
2023-06-23T01:58:02.199Z,2.10
2023-06-23T02:00:30.115Z,2.38
2023-06-23T02:02:59.088Z,1.98
2023-06-23T02:05:28.654Z,2.10
2023-06-23T02:07:58.739Z,1.92
2023-06-23T02:10:29.107Z,1.95
2023-06-23T02:12:58.259Z,2.30
2023-06-23T02:15:28.121Z,2.20
2023-06-23T02:17:57.472Z,2.17
2023-06-23T02:20:25.159Z,2.10
2023-06-23T02:22:54.278Z,2.15
2023-06-23T02:25:23.546Z,2.05
2023-06-23T02:27:51.869Z,2.08
2023-06-23T02:30:19.713Z,1.98
2023-06-23T02:32:50.004Z,2.13
2023-06-23T02:35:17.711Z,2.00
2023-06-23T02:37:54.409Z,2.00
2023-06-23T02:40:24.779Z,2.08
2023-06-23T02:43:01.373Z,1.90
2023-06-23T02:45:35.247Z,2.20
2023-06-23T02:48:04.643Z,2.00
2023-06-23T02:50:35.774Z,2.17
2023-06-23T02:53:10.361Z,1.85
2023-06-23T02:55:46.197Z,1.90
2023-06-23T02:58:17.171Z,2.17
2023-06-23T03:03:16.372Z,1.98
2023-06-23T03:05:44.787Z,2.10
2023-06-23T03:08:12.337Z,2.30
2023-06-23T03:10:39.358Z,2.15
2023-06-23T03:13:06.396Z,1.92
2023-06-23T03:15:34.096Z,2.08
2023-06-23T03:18:26.397Z,2.30
2023-06-23T03:20:56.577Z,2.15
2023-06-23T03:23:26.897Z,2.10
2023-06-23T03:25:55.250Z,2.30
2023-06-23T03:28:28.952Z,2.30
2023-06-23T03:31:04.529Z,2.40
2023-06-23T03:33:35.224Z,2.05
2023-06-23T03:36:16.572Z,2.30
2023-06-23T03:38:58.759Z,2.40
2023-06-23T03:41:29.777Z,2.25
2023-06-23T03:46:32.846Z,2.13
2023-06-23T03:49:03.287Z,2.05
2023-06-23T03:51:34.094Z,2.10
2023-06-23T03:54:03.640Z,2.00
2023-06-23T03:56:34.005Z,2.28
2023-06-23T03:59:03.734Z,2.28
2023-06-23T04:01:34.492Z,2.20
2023-06-23T04:04:04.297Z,2.20
2023-06-23T04:06:32.707Z,2.25
2023-06-23T04:09:02.966Z,2.30
2023-06-23T04:11:31.933Z,2.20
2023-06-23T04:14:00.770Z,1.90
2023-06-23T04:16:28.441Z,2.25
2023-06-23T04:18:57.460Z,2.28
2023-06-23T04:21:25.588Z,2.03
2023-06-23T04:23:54.801Z,2.35
2023-06-23T04:26:21.788Z,2.40
2023-06-23T04:28:53.893Z,4.57
2023-06-23T04:31:23.112Z,4.30
2023-06-23T04:33:50.233Z,3.95
2023-06-23T04:36:19.709Z,3.22
2023-06-23T04:39:00.862Z,2.83
2023-06-23T04:44:00.149Z,3.13
2023-06-23T04:46:31.215Z,2.78
2023-06-23T04:49:03.844Z,2.95
2023-06-23T04:51:37.015Z,2.97
2023-06-23T04:54:12.251Z,4.32
2023-06-23T04:56:41.938Z,7.68
2023-06-23T04:59:12.279Z,13.90
2023-06-23T05:01:40.059Z,15.52
2023-06-23T05:04:09.387Z,12.32
2023-06-23T05:06:41.119Z,14.23
2023-06-23T05:09:10.121Z,13.32
2023-06-23T05:11:37.686Z,15.32
2023-06-23T05:14:08.304Z,13.23
2023-06-23T05:16:37.493Z,13.15
2023-06-23T05:19:10.134Z,11.23
2023-06-23T05:21:37.987Z,11.15
2023-06-23T05:24:10.450Z,10.75
2023-06-23T05:26:40.487Z,10.38
2023-06-23T05:29:09.813Z,10.05
2023-06-23T05:31:42.444Z,11.13
2023-06-23T05:34:13.223Z,10.65
2023-06-23T05:36:41.635Z,10.85
2023-06-23T05:39:11.690Z,9.38
2023-06-23T05:41:38.846Z,9.30
2023-06-23T05:44:06.035Z,9.30
2023-06-23T05:46:36.567Z,8.48
2023-06-23T05:49:18.582Z,9.32
2023-06-23T05:51:46.916Z,7.55
2023-06-23T05:54:16.256Z,8.20
2023-06-23T05:56:52.073Z,8.13
2023-06-23T05:59:43.888Z,8.48
2023-06-23T06:02:20.053Z,7.85
2023-06-23T06:04:52.834Z,6.75
2023-06-23T06:07:21.785Z,7.22
2023-06-23T06:09:50.908Z,7.03
2023-06-23T06:12:19.026Z,6.93
2023-06-23T06:14:47.996Z,5.63
2023-06-23T06:17:17.696Z,5.82
2023-06-23T06:19:46.997Z,5.40
2023-06-23T06:22:17.708Z,5.57
2023-06-23T06:24:47.483Z,5.40
2023-06-23T06:27:16.529Z,5.40
2023-06-23T06:29:45.167Z,5.78
2023-06-23T06:32:14.402Z,5.05
2023-06-23T06:34:44.919Z,4.78
2023-06-23T06:37:13.252Z,5.53
2023-06-23T06:39:42.829Z,5.18
2023-06-23T06:42:10.371Z,4.43
2023-06-23T06:44:37.858Z,4.30
2023-06-23T06:47:08.057Z,4.80
2023-06-23T06:49:36.118Z,4.30
2023-06-23T06:52:04.631Z,4.70
2023-06-23T06:54:31.775Z,4.18
2023-06-23T06:56:59.726Z,4.18
2023-06-23T06:59:26.966Z,4.45
2023-06-23T07:01:54.807Z,4.53
2023-06-23T07:04:22.956Z,3.88
2023-06-23T07:06:54.852Z,3.85
2023-06-23T07:09:22.310Z,3.92
2023-06-23T07:11:50.586Z,3.60
2023-06-23T07:14:18.075Z,4.10
2023-06-23T07:16:45.089Z,3.63
2023-06-23T07:19:12.533Z,3.35
2023-06-23T07:21:39.644Z,3.17
2023-06-23T07:24:07.210Z,3.50
2023-06-23T07:26:35.134Z,3.58
2023-06-23T07:29:02.219Z,3.67
2023-06-23T07:31:29.574Z,3.22
2023-06-23T07:33:57.885Z,3.83
2023-06-23T07:36:25.053Z,3.47
2023-06-23T07:38:52.147Z,3.97
2023-06-23T07:41:19.188Z,3.40
2023-06-23T07:43:46.449Z,3.22
2023-06-23T07:46:13.855Z,3.33
2023-06-23T07:48:41.366Z,3.42
2023-06-23T07:51:08.814Z,3.35
2023-06-23T07:53:36.213Z,3.30
2023-06-23T07:56:03.355Z,3.60
2023-06-23T07:58:30.411Z,3.53
2023-06-23T08:00:57.585Z,2.97
2023-06-23T08:03:24.956Z,3.42
2023-06-23T08:05:52.189Z,3.40
2023-06-23T08:08:19.352Z,3.17
2023-06-23T08:10:46.675Z,3.40
2023-06-23T08:13:13.979Z,3.40
2023-06-23T08:15:42.435Z,3.00
2023-06-23T08:18:10.063Z,3.45
2023-06-23T08:20:37.257Z,3.20
2023-06-23T08:23:04.308Z,3.17
2023-06-23T08:25:31.877Z,2.95
2023-06-23T08:27:59.244Z,3.42
2023-06-23T08:30:28.676Z,3.20
2023-06-23T08:32:56.112Z,2.80
2023-06-23T08:35:24.099Z,3.10
2023-06-23T08:37:51.402Z,2.92
2023-06-23T08:40:18.965Z,2.80
2023-06-23T08:42:46.882Z,2.75
2023-06-23T08:45:17.263Z,2.95
2023-06-23T08:47:53.293Z,2.75
2023-06-23T08:50:22.484Z,2.90
2023-06-23T08:52:49.926Z,3.33
2023-06-23T08:55:17.064Z,2.95
2023-06-23T08:57:44.253Z,3.13
2023-06-23T09:00:12.122Z,2.75
2023-06-23T09:02:39.532Z,3.00
2023-06-23T09:05:06.794Z,3.03
2023-06-23T09:07:34.117Z,6.25
2023-06-23T09:10:01.970Z,5.35
2023-06-23T09:12:29.258Z,3.00
2023-06-23T09:15:00.175Z,2.97
2023-06-23T09:17:28.867Z,2.80
2023-06-23T09:19:56.753Z,2.85
2023-06-23T09:22:25.266Z,2.83
2023-06-23T09:24:52.336Z,3.00
2023-06-23T09:27:19.604Z,2.80
2023-06-23T09:30:01.077Z,2.97
2023-06-23T09:32:31.222Z,2.95
2023-06-23T09:34:58.672Z,2.80
2023-06-23T09:37:26.989Z,2.65
2023-06-23T09:39:57.409Z,2.40
2023-06-23T09:42:26.580Z,2.78
2023-06-23T09:44:53.815Z,2.88
2023-06-23T09:47:21.416Z,3.10
2023-06-23T09:49:50.386Z,2.83
2023-06-23T09:52:28.115Z,2.85
2023-06-23T09:54:56.869Z,2.55
2023-06-23T09:57:25.013Z,2.55
2023-06-23T09:59:54.192Z,2.50
2023-06-23T10:02:28.216Z,2.60
2023-06-23T10:05:08.220Z,2.63
2023-06-23T10:07:35.777Z,2.85
2023-06-23T10:10:21.556Z,2.78
2023-06-23T10:12:53.874Z,2.70
2023-06-23T10:15:21.570Z,2.85
2023-06-23T10:17:49.511Z,2.67
2023-06-23T10:20:17.215Z,2.97
2023-06-23T10:22:46.202Z,2.28
2023-06-23T10:25:13.539Z,2.33
2023-06-23T10:27:43.465Z,2.55
2023-06-23T10:30:16.472Z,2.60
2023-06-23T10:32:49.346Z,3.13
2023-06-23T10:35:21.554Z,2.50
2023-06-23T10:37:50.496Z,2.30
2023-06-23T10:40:23.824Z,2.53
2023-06-23T10:42:52.271Z,2.50
2023-06-23T10:45:19.635Z,3.10
2023-06-23T10:47:49.708Z,2.70
2023-06-23T10:50:17.245Z,2.60
2023-06-23T10:52:44.488Z,2.42
2023-06-23T10:55:38.274Z,2.63
2023-06-23T10:58:18.051Z,2.70
2023-06-23T11:00:55.250Z,2.50
2023-06-23T11:03:37.515Z,2.60
2023-06-23T11:06:09.611Z,2.75
2023-06-23T11:08:41.883Z,2.50
2023-06-23T11:11:19.534Z,2.38
2023-06-23T11:13:48.537Z,2.60
2023-06-23T11:16:33.045Z,2.90
2023-06-23T11:19:02.444Z,2.95
2023-06-23T11:21:39.121Z,2.67
2023-06-23T11:24:16.238Z,2.85
2023-06-23T11:26:56.909Z,2.72
2023-06-23T11:29:24.735Z,2.85
2023-06-23T11:32:08.305Z,3.08
2023-06-23T11:35:08.677Z,2.90
2023-06-23T11:37:36.279Z,3.10
2023-06-23T11:40:05.061Z,3.03
2023-06-23T11:42:32.413Z,3.00
2023-06-23T11:44:59.885Z,4.32
2023-06-23T11:47:31.117Z,3.45
2023-06-23T11:50:03.950Z,3.47
2023-06-23T11:52:31.588Z,3.38
2023-06-23T11:54:58.673Z,3.30
2023-06-23T11:57:26.178Z,3.20
2023-06-23T11:59:54.405Z,3.70
2023-06-23T12:02:22.237Z,3.42
2023-06-23T12:04:52.762Z,3.33
2023-06-23T12:07:21.145Z,3.50
2023-06-23T12:09:48.295Z,3.40
2023-06-23T12:12:17.527Z,3.30
2023-06-23T12:14:45.334Z,3.60
2023-06-23T12:17:14.254Z,3.38
2023-06-23T12:19:43.239Z,3.58
2023-06-23T12:22:19.734Z,3.45
2023-06-23T12:24:47.870Z,3.50
2023-06-23T12:27:15.233Z,3.72
2023-06-23T12:29:42.453Z,3.47
2023-06-23T12:32:10.538Z,3.60
2023-06-23T12:34:43.942Z,3.70
2023-06-23T12:37:18.988Z,3.92
2023-06-23T12:39:53.940Z,3.58
2023-06-23T12:42:22.009Z,3.70
2023-06-23T12:44:50.562Z,3.80
2023-06-23T12:47:19.675Z,3.80
2023-06-23T12:49:46.834Z,3.70
2023-06-23T12:52:13.962Z,3.72
2023-06-23T12:54:40.989Z,3.72
2023-06-23T12:57:10.926Z,3.65
2023-06-23T12:59:37.973Z,3.58
2023-06-23T13:02:05.353Z,3.50
2023-06-23T13:04:32.437Z,3.80
2023-06-23T13:06:59.725Z,3.60
2023-06-23T13:09:26.847Z,3.33
2023-06-23T13:11:54.106Z,3.55
2023-06-23T13:14:21.614Z,3.63
2023-06-23T13:16:49.330Z,3.25
2023-06-23T13:19:17.250Z,3.80
2023-06-23T13:21:47.547Z,3.30
2023-06-23T13:24:14.995Z,3.30
2023-06-23T13:26:45.000Z,3.88
2023-06-23T13:29:12.622Z,3.50
2023-06-23T13:31:40.054Z,3.05
2023-06-23T13:34:07.243Z,3.50
2023-06-23T13:36:34.517Z,3.40
2023-06-23T13:39:02.289Z,3.70
2023-06-23T13:41:29.502Z,3.10
2023-06-23T13:43:56.679Z,3.20
2023-06-23T13:46:24.081Z,3.70
2023-06-23T13:48:51.952Z,3.20
2023-06-23T13:51:19.218Z,3.30
2023-06-23T13:53:46.421Z,3.65
2023-06-23T13:56:14.382Z,3.05
2023-06-23T13:58:41.694Z,3.40
2023-06-23T14:01:08.944Z,3.30
2023-06-23T14:03:37.417Z,3.35
2023-06-23T14:06:05.722Z,3.13
2023-06-23T14:08:35.805Z,3.10
2023-06-23T14:11:03.438Z,3.23
2023-06-23T14:13:30.648Z,3.30
2023-06-23T14:15:58.124Z,3.15
2023-06-23T14:18:25.732Z,2.90
2023-06-23T14:20:53.009Z,2.80
2023-06-23T14:23:20.219Z,2.97
2023-06-23T14:25:47.362Z,2.60
2023-06-23T14:28:16.147Z,2.60
2023-06-23T14:30:43.381Z,2.63
2023-06-23T14:33:10.949Z,2.70
2023-06-23T14:35:38.330Z,2.60
2023-06-23T14:38:07.343Z,2.58
2023-06-23T14:40:34.634Z,2.50
2023-06-23T14:43:02.354Z,2.30
2023-06-23T14:45:36.498Z,2.38
2023-06-23T14:48:04.404Z,2.55
2023-06-23T14:50:31.633Z,2.20
2023-06-23T14:52:59.755Z,2.55
2023-06-23T14:55:27.213Z,2.28
2023-06-23T14:57:54.655Z,2.60
2023-06-23T15:00:22.540Z,2.15
2023-06-23T15:02:49.934Z,2.35
2023-06-23T15:05:17.519Z,2.33
2023-06-23T15:07:44.838Z,2.40
2023-06-23T15:10:12.082Z,2.15
2023-06-23T15:12:39.131Z,2.20
2023-06-23T15:15:06.718Z,2.20
2023-06-23T15:17:34.124Z,2.22
2023-06-23T15:20:01.366Z,1.90
2023-06-23T15:22:28.808Z,2.00
2023-06-23T15:24:55.883Z,2.15
2023-06-23T15:27:23.193Z,2.33
2023-06-23T15:29:50.384Z,2.10
2023-06-23T15:32:17.538Z,2.30
2023-06-23T15:34:44.876Z,1.90
2023-06-23T15:37:12.359Z,2.10
2023-06-23T15:39:42.712Z,4.93
2023-06-23T15:42:12.952Z,4.72
2023-06-23T15:44:43.251Z,3.63
2023-06-23T15:47:10.736Z,2.38
2023-06-23T15:49:38.312Z,1.60
2023-06-23T15:52:07.088Z,2.00
2023-06-23T15:54:36.122Z,1.90
2023-06-23T15:57:03.761Z,1.58
2023-06-23T15:59:30.830Z,1.40
2023-06-23T16:01:57.974Z,1.40
2023-06-23T16:04:25.577Z,1.42
2023-06-23T16:06:52.770Z,1.30
2023-06-23T16:09:19.946Z,1.80
2023-06-23T16:11:46.939Z,1.77
2023-06-23T16:14:13.991Z,1.35
2023-06-23T16:16:42.614Z,2.20
2023-06-23T16:19:10.047Z,2.97
2023-06-23T16:21:37.371Z,3.38
2023-06-23T16:24:04.881Z,2.63
2023-06-23T16:26:32.022Z,4.50
2023-06-23T16:28:59.694Z,2.25
2023-06-23T16:31:26.974Z,3.17
2023-06-23T16:33:56.692Z,2.13
2023-06-23T16:36:25.916Z,1.60
2023-06-23T16:38:52.937Z,2.17
2023-06-23T16:41:20.292Z,1.90
2023-06-23T16:43:47.479Z,6.38
2023-06-23T16:46:14.769Z,4.53
2023-06-23T16:48:41.967Z,3.70
2023-06-23T16:51:09.307Z,3.95
2023-06-23T16:53:36.721Z,2.38
2023-06-23T16:56:06.860Z,2.33
2023-06-23T16:58:34.982Z,2.43
2023-06-23T17:01:02.592Z,3.92
2023-06-23T17:03:29.868Z,3.30
2023-06-23T17:05:57.046Z,2.20
2023-06-23T17:08:24.271Z,9.30
2023-06-23T17:10:51.452Z,4.68
2023-06-23T17:13:18.498Z,5.20
2023-06-23T17:15:45.894Z,3.92
2023-06-23T17:18:12.915Z,2.88
2023-06-23T17:20:39.916Z,4.38
2023-06-23T17:23:07.271Z,5.72
2023-06-23T17:25:34.539Z,2.80
2023-06-23T17:28:02.063Z,2.10
2023-06-23T17:30:29.227Z,2.10
2023-06-23T17:32:56.547Z,2.08
2023-06-23T17:35:23.691Z,1.95
2023-06-23T17:37:50.753Z,3.50
2023-06-23T17:40:21.612Z,5.25
2023-06-23T17:42:48.839Z,3.22
2023-06-23T17:45:16.004Z,2.08
2023-06-23T17:47:43.443Z,1.40
2023-06-23T17:50:11.636Z,1.70
2023-06-23T17:52:38.869Z,1.73
2023-06-23T17:55:06.680Z,2.10
2023-06-23T17:57:33.771Z,1.38
2023-06-23T18:00:01.166Z,2.88
2023-06-23T18:02:29.229Z,2.47
2023-06-23T18:04:56.453Z,2.42
2023-06-23T18:07:24.121Z,3.20
2023-06-23T18:09:51.486Z,2.95
2023-06-23T18:12:18.837Z,3.65
2023-06-23T18:14:46.122Z,2.70
2023-06-23T18:17:13.775Z,1.92
2023-06-23T18:19:42.157Z,3.30
2023-06-23T18:22:09.316Z,3.22
2023-06-23T18:24:36.488Z,3.80
2023-06-23T18:27:04.184Z,3.80
2023-06-23T18:29:31.371Z,2.85
2023-06-23T18:32:08.297Z,3.55
2023-06-23T18:34:36.519Z,2.83
2023-06-23T18:37:03.748Z,2.97
2023-06-23T18:39:31.055Z,2.58
2023-06-23T18:41:58.943Z,2.80
2023-06-23T18:44:26.099Z,3.30
2023-06-23T18:46:53.339Z,3.03
2023-06-23T18:49:20.583Z,3.33
2023-06-23T18:51:48.119Z,2.72
2023-06-23T18:54:15.244Z,3.47
2023-06-23T18:56:42.503Z,2.75
2023-06-23T18:59:09.834Z,2.92
2023-06-23T19:01:37.200Z,2.95
2023-06-23T19:04:04.673Z,3.45
2023-06-23T19:06:31.862Z,2.05
2023-06-23T19:09:04.126Z,1.98
2023-06-23T19:11:32.553Z,2.03
2023-06-23T19:14:03.147Z,1.77
2023-06-23T19:16:31.330Z,2.00
2023-06-23T19:18:59.268Z,2.40
2023-06-23T19:21:27.019Z,1.80
2023-06-23T19:23:55.517Z,1.83
2023-06-23T19:26:22.779Z,2.10
2023-06-23T19:28:50.356Z,2.30
2023-06-23T19:31:17.537Z,2.25
2023-06-23T19:33:44.783Z,1.60
2023-06-23T19:36:12.314Z,1.98
2023-06-23T19:38:39.742Z,1.42
2023-06-23T19:41:07.130Z,1.90
2023-06-23T19:43:34.410Z,1.85
2023-06-23T19:46:03.506Z,3.85
2023-06-23T19:48:30.901Z,25.67
2023-06-23T19:50:58.096Z,32.78
2023-06-23T19:53:25.403Z,41.58
2023-06-23T19:55:55.730Z,46.45
2023-06-23T19:58:23.162Z,83.47
2023-06-23T20:00:50.899Z,84.72
2023-06-23T20:03:18.417Z,75.28
2023-06-23T20:05:45.847Z,69.97
2023-06-23T20:08:13.235Z,67.68
2023-06-23T20:10:40.844Z,66.53
2023-06-23T20:13:08.737Z,59.17
2023-06-23T20:15:36.463Z,62.60
2023-06-23T20:18:04.040Z,62.35
2023-06-23T20:20:31.679Z,61.92
2023-06-23T20:22:59.426Z,62.42
2023-06-23T20:25:27.057Z,56.70
2023-06-23T20:27:54.273Z,56.08
2023-06-23T20:30:21.615Z,54.75
2023-06-23T20:32:48.897Z,51.13
2023-06-23T20:35:16.505Z,48.83
2023-06-23T20:37:44.015Z,46.58
2023-06-23T20:40:14.677Z,43.67
2023-06-23T20:45:15.294Z,39.70
2023-06-23T20:47:45.653Z,33.38
2023-06-23T20:50:13.428Z,31.98
2023-06-23T20:52:41.217Z,26.55
2023-06-23T20:55:09.094Z,28.25
2023-06-23T20:57:37.616Z,27.20
2023-06-23T21:00:05.919Z,26.15
2023-06-23T21:02:33.279Z,27.42
2023-06-23T21:05:01.021Z,23.98
2023-06-23T21:07:29.044Z,22.42
2023-06-23T21:09:56.463Z,22.88
2023-06-23T21:12:25.151Z,20.60
2023-06-23T21:15:04.648Z,21.33
2023-06-23T21:17:34.443Z,26.00
2023-06-23T21:20:02.052Z,10.35
2023-06-23T21:22:29.817Z,12.98
2023-06-23T21:24:57.084Z,7.55
2023-06-23T21:27:25.780Z,9.30
2023-06-23T21:29:53.506Z,12.00
2023-06-23T21:32:20.831Z,10.50
2023-06-23T21:34:48.333Z,10.55
2023-06-23T21:37:16.895Z,10.65
2023-06-23T21:39:44.333Z,11.40
2023-06-23T21:42:11.624Z,12.43
2023-06-23T21:44:38.997Z,10.15
2023-06-23T21:47:06.807Z,9.95
2023-06-23T21:49:34.274Z,9.93
2023-06-23T21:52:01.754Z,8.38
2023-06-23T21:54:29.071Z,9.18
2023-06-23T21:56:56.291Z,8.45
2023-06-23T21:59:23.765Z,8.75
2023-06-23T22:01:51.629Z,8.20
2023-06-23T22:04:18.780Z,8.25
2023-06-23T22:06:46.242Z,7.85
2023-06-23T22:09:13.571Z,7.57
2023-06-23T22:11:40.747Z,7.95
2023-06-23T22:14:07.905Z,7.75
2023-06-23T22:16:35.322Z,7.57
2023-06-23T22:19:02.537Z,6.70
2023-06-23T22:21:29.981Z,7.13
2023-06-23T22:23:57.327Z,6.95
2023-06-23T22:26:24.607Z,6.63
2023-06-23T22:28:51.754Z,5.38
2023-06-23T22:31:19.079Z,5.90
2023-06-23T22:33:46.618Z,5.20
2023-06-23T22:36:13.979Z,4.93
2023-06-23T22:38:41.073Z,5.50
2023-06-23T22:41:08.555Z,5.40
2023-06-23T22:43:35.784Z,5.40
2023-06-23T22:46:03.172Z,4.35
2023-06-23T22:48:30.322Z,5.00
2023-06-23T22:50:57.530Z,4.53
2023-06-23T22:53:24.658Z,4.18
2023-06-23T22:55:52.221Z,3.40
2023-06-23T22:58:19.398Z,4.28
2023-06-23T23:00:46.452Z,4.05
2023-06-23T23:03:13.849Z,3.60
2023-06-23T23:05:42.314Z,4.35
2023-06-23T23:08:09.444Z,3.85
2023-06-23T23:10:37.396Z,3.95
2023-06-23T23:13:05.591Z,3.95
2023-06-23T23:15:32.770Z,3.83
2023-06-23T23:17:59.868Z,3.30
2023-06-23T23:20:27.003Z,2.97
2023-06-23T23:22:54.311Z,3.45
2023-06-23T23:25:22.408Z,3.50
2023-06-23T23:27:52.644Z,3.28
2023-06-23T23:30:20.056Z,2.83
2023-06-23T23:32:50.562Z,2.72
2023-06-23T23:35:18.128Z,2.85
2023-06-23T23:37:46.019Z,2.92
2023-06-23T23:40:14.420Z,3.03
2023-06-23T23:42:45.873Z,2.60
2023-06-23T23:45:13.951Z,2.67
2023-06-23T23:47:42.604Z,2.80
2023-06-23T23:50:10.271Z,2.55
2023-06-23T23:52:37.615Z,3.05
2023-06-23T23:55:05.078Z,3.00
2023-06-23T23:57:32.419Z,2.10
2023-06-23T23:59:59.480Z,2.30
